^^
TXWeather Station Historical Data
 
Daily Summary for December 11, 2019 Units:  English    Metric   Both
Daily Weekly Monthly Yearly Custom
  Current: High: Low: Average:
Temperature: 56 °F 56 °F 42 °F 45.5 °F
Dew Point: 40 °F 42 °F 38 °F 39.8 °F
Humidity: 54% 90% 54% 80%
Wind Speed: 5mph 10mph 2mph 5.7mph
Wind Gust: 11mph 18mph - -
WindNNE - - ENE
Pressure: 30.49 in 30.57 in 30.44 in -
Precipitation: 0 in      
Historical Graphs
 
 
Tabular Data for December 11, 2019
Time Temperature Dew Point Pressure Wind Wind Speed Wind Gust Humidity Rainfall Rate (Hourly) solar
00:04 46 °F 42 °F 30.44 in N 7 mph 12 mph 88% 0 in 0 W/m2
00:09 45 °F 42 °F 30.44 in N 6 mph 12 mph 88% 0 in 0 W/m2
00:14 45 °F 42 °F 30.44 in N 6 mph 10 mph 89% 0 in 0 W/m2
00:19 45 °F 42 °F 30.44 in N 8 mph 14 mph 89% 0 in 0 W/m2
00:24 45 °F 42 °F 30.44 in N 8 mph 12 mph 89% 0 in 0 W/m2
00:29 45 °F 42 °F 30.44 in N 5 mph 11 mph 90% 0 in 0 W/m2
00:34 45 °F 42 °F 30.45 in N 6 mph 13 mph 90% 0 in 0 W/m2
00:39 45 °F 42 °F 30.45 in N 7 mph 12 mph 90% 0 in 0 W/m2
00:44 45 °F 42 °F 30.45 in N 8 mph 13 mph 89% 0 in 0 W/m2
00:49 45 °F 42 °F 30.45 in N 7 mph 12 mph 89% 0 in 0 W/m2
00:54 45 °F 42 °F 30.45 in N 8 mph 14 mph 89% 0 in 0 W/m2
00:59 45 °F 41 °F 30.45 in N 8 mph 15 mph 89% 0 in 0 W/m2
01:04 45 °F 42 °F 30.45 in N 5 mph 10 mph 89% 0 in 0 W/m2
01:09 45 °F 41 °F 30.45 in N 8 mph 12 mph 89% 0 in 0 W/m2
01:14 44 °F 41 °F 30.45 in N 7 mph 12 mph 89% 0 in 0 W/m2
01:19 45 °F 41 °F 30.45 in N 7 mph 14 mph 89% 0 in 0 W/m2
01:24 44 °F 41 °F 30.45 in N 7 mph 14 mph 88% 0 in 0 W/m2
01:29 44 °F 41 °F 30.45 in N 9 mph 17 mph 88% 0 in 0 W/m2
01:34 44 °F 41 °F 30.45 in NNE 9 mph 17 mph 88% 0 in 0 W/m2
01:39 44 °F 41 °F 30.45 in N 9 mph 15 mph 88% 0 in 0 W/m2
01:44 44 °F 41 °F 30.45 in NNE 7 mph 15 mph 87% 0 in 0 W/m2
01:49 44 °F 41 °F 30.45 in NNE 5 mph 9 mph 87% 0 in 0 W/m2
01:54 44 °F 41 °F 30.45 in NNE 7 mph 14 mph 87% 0 in 0 W/m2
01:59 44 °F 41 °F 30.45 in NNE 7 mph 17 mph 87% 0 in 0 W/m2
02:04 44 °F 41 °F 30.45 in NNE 8 mph 17 mph 87% 0 in 0 W/m2
02:09 44 °F 41 °F 30.45 in N 10 mph 17 mph 87% 0 in 0 W/m2
02:14 44 °F 41 °F 30.45 in N 8 mph 15 mph 87% 0 in 0 W/m2
02:19 44 °F 41 °F 30.45 in NNE 6 mph 15 mph 87% 0 in 0 W/m2
02:24 44 °F 41 °F 30.45 in NNE 7 mph 15 mph 87% 0 in 0 W/m2
02:29 44 °F 41 °F 30.45 in NNE 7 mph 13 mph 87% 0 in 0 W/m2
02:34 44 °F 40 °F 30.45 in N 8 mph 13 mph 87% 0 in 0 W/m2
02:39 44 °F 40 °F 30.45 in NNE 7 mph 13 mph 87% 0 in 0 W/m2
02:44 44 °F 41 °F 30.45 in N 5 mph 11 mph 87% 0 in 0 W/m2
02:49 44 °F 41 °F 30.45 in NNE 6 mph 12 mph 87% 0 in 0 W/m2
02:54 44 °F 40 °F 30.45 in N 6 mph 12 mph 87% 0 in 0 W/m2
02:59 44 °F 40 °F 30.45 in NNE 6 mph 13 mph 87% 0 in 0 W/m2
03:04 44 °F 40 °F 30.45 in N 9 mph 15 mph 87% 0 in 0 W/m2
03:09 44 °F 40 °F 30.46 in NNE 7 mph 15 mph 87% 0 in 0 W/m2
03:14 43 °F 40 °F 30.46 in NNE 6 mph 12 mph 87% 0 in 0 W/m2
03:19 43 °F 40 °F 30.46 in N 6 mph 13 mph 87% 0 in 0 W/m2
03:24 43 °F 40 °F 30.46 in NNE 6 mph 13 mph 87% 0 in 0 W/m2
03:29 43 °F 40 °F 30.46 in N 7 mph 12 mph 87% 0 in 0 W/m2
03:34 43 °F 40 °F 30.47 in NNE 3 mph 9 mph 87% 0 in 0 W/m2
03:39 43 °F 40 °F 30.47 in NNE 4 mph 8 mph 87% 0 in 0 W/m2
03:44 43 °F 40 °F 30.47 in NNE 5 mph 10 mph 87% 0 in 0 W/m2
03:49 43 °F 40 °F 30.47 in NNE 4 mph 8 mph 87% 0 in 0 W/m2
03:54 43 °F 40 °F 30.47 in N 4 mph 7 mph 87% 0 in 0 W/m2
03:59 43 °F 40 °F 30.47 in N 5 mph 12 mph 88% 0 in 0 W/m2
04:04 43 °F 40 °F 30.47 in NNE 5 mph 10 mph 88% 0 in 0 W/m2
04:09 43 °F 40 °F 30.47 in NNE 5 mph 11 mph 87% 0 in 0 W/m2
04:14 43 °F 40 °F 30.47 in NNE 5 mph 9 mph 87% 0 in 0 W/m2
04:19 43 °F 40 °F 30.47 in NNE 6 mph 11 mph 88% 0 in 0 W/m2
04:24 43 °F 40 °F 30.47 in N 7 mph 12 mph 87% 0 in 0 W/m2
04:29 43 °F 40 °F 30.47 in NNE 6 mph 12 mph 87% 0 in 0 W/m2
04:34 43 °F 39 °F 30.47 in NNE 6 mph 13 mph 87% 0 in 0 W/m2
04:39 43 °F 40 °F 30.47 in NNE 4 mph 9 mph 87% 0 in 0 W/m2
04:44 43 °F 40 °F 30.47 in N 6 mph 9 mph 87% 0 in 0 W/m2
04:49 43 °F 40 °F 30.47 in NNE 6 mph 12 mph 87% 0 in 0 W/m2
04:54 43 °F 40 °F 30.47 in N 4 mph 8 mph 87% 0 in 0 W/m2
04:59 43 °F 40 °F 30.47 in N 4 mph 10 mph 87% 0 in 0 W/m2
05:04 43 °F 40 °F 30.47 in NNE 5 mph 10 mph 87% 0 in 0 W/m2
05:09 43 °F 40 °F 30.47 in N 7 mph 12 mph 87% 0 in 0 W/m2
05:14 43 °F 39 °F 30.47 in NNE 7 mph 13 mph 86% 0 in 0 W/m2
05:19 43 °F 39 °F 30.47 in NNE 6 mph 11 mph 86% 0 in 0 W/m2
05:24 43 °F 39 °F 30.48 in N 5 mph 11 mph 86% 0 in 0 W/m2
05:29 43 °F 39 °F 30.48 in NNE 5 mph 11 mph 86% 0 in 0 W/m2
05:34 43 °F 40 °F 30.48 in NNE 3 mph 8 mph 87% 0 in 0 W/m2
05:39 43 °F 40 °F 30.48 in N 3 mph 5 mph 87% 0 in 0 W/m2
05:44 43 °F 40 °F 30.48 in NNE 6 mph 12 mph 87% 0 in 0 W/m2
05:49 43 °F 39 °F 30.48 in N 9 mph 18 mph 86% 0 in 0 W/m2
05:54 43 °F 39 °F 30.49 in N 9 mph 14 mph 85% 0 in 0 W/m2
05:59 43 °F 39 °F 30.5 in NNE 5 mph 12 mph 85% 0 in 0 W/m2
06:04 43 °F 39 °F 30.5 in N 5 mph 11 mph 85% 0 in 0 W/m2
06:09 43 °F 39 °F 30.5 in N 5 mph 9 mph 85% 0 in 0 W/m2
06:14 43 °F 39 °F 30.5 in NNE 5 mph 9 mph 85% 0 in 0 W/m2
06:19 43 °F 39 °F 30.5 in NNE 4 mph 9 mph 85% 0 in 0 W/m2
06:24 43 °F 38 °F 30.5 in NNE 5 mph 11 mph 85% 0 in 0 W/m2
06:29 43 °F 38 °F 30.51 in N 5 mph 10 mph 85% 0 in 0 W/m2
06:34 42 °F 38 °F 30.51 in N 6 mph 10 mph 85% 0 in 0 W/m2
06:39 42 °F 38 °F 30.51 in N 6 mph 12 mph 85% 0 in 0 W/m2
06:44 42 °F 38 °F 30.51 in N 7 mph 12 mph 84% 0 in 0 W/m2
06:49 42 °F 38 °F 30.52 in NNE 6 mph 12 mph 84% 0 in 0 W/m2
06:54 42 °F 38 °F 30.52 in NNE 4 mph 10 mph 84% 0 in 0 W/m2
06:59 42 °F 38 °F 30.52 in N 5 mph 12 mph 84% 0 in 0 W/m2
07:04 42 °F 38 °F 30.52 in NNE 6 mph 12 mph 84% 0 in 0 W/m2
07:09 42 °F 38 °F 30.52 in NNE 5 mph 10 mph 84% 0 in 0 W/m2
07:14 42 °F 38 °F 30.52 in N 4 mph 10 mph 85% 0 in 5 W/m2
07:19 42 °F 38 °F 30.52 in NNE 3 mph 8 mph 85% 0 in 11 W/m2
07:24 42 °F 38 °F 30.53 in N 2 mph 6 mph 85% 0 in 16 W/m2
07:29 42 °F 38 °F 30.53 in NNE 3 mph 7 mph 85% 0 in 18 W/m2
07:34 42 °F 38 °F 30.53 in N 4 mph 10 mph 85% 0 in 23 W/m2
07:39 42 °F 38 °F 30.53 in NNE 5 mph 10 mph 85% 0 in 21 W/m2
07:44 43 °F 38 °F 30.53 in NNE 4 mph 10 mph 84% 0 in 56 W/m2
07:49 43 °F 38 °F 30.53 in N 5 mph 8 mph 84% 0 in 77 W/m2
07:54 43 °F 38 °F 30.54 in N 6 mph 13 mph 83% 0 in 91 W/m2
07:59 43 °F 38 °F 30.54 in N 6 mph 13 mph 82% 0 in 91 W/m2
08:04 43 °F 38 °F 30.54 in N 7 mph 13 mph 82% 0 in 67 W/m2
08:09 42 °F 38 °F 30.54 in N 6 mph 13 mph 83% 0 in 120 W/m2
08:14 42 °F 38 °F 30.54 in N 5 mph 11 mph 83% 0 in 120 W/m2
08:19 43 °F 38 °F 30.54 in N 5 mph 11 mph 83% 0 in 118 W/m2
08:24 43 °F 38 °F 30.54 in N 6 mph 10 mph 82% 0 in 153 W/m2
08:29 43 °F 38 °F 30.54 in N 5 mph 11 mph 83% 0 in 139 W/m2
08:34 43 °F 38 °F 30.54 in N 7 mph 12 mph 82% 0 in 199 W/m2
08:39 43 °F 38 °F 30.54 in N 8 mph 12 mph 82% 0 in 195 W/m2
08:44 43 °F 38 °F 30.55 in N 7 mph 12 mph 82% 0 in 137 W/m2
08:49 43 °F 38 °F 30.55 in N 6 mph 12 mph 82% 0 in 229 W/m2
08:54 43 °F 38 °F 30.55 in N 5 mph 11 mph 82% 0 in 229 W/m2
08:59 43 °F 38 °F 30.55 in N 4 mph 11 mph 82% 0 in 132 W/m2
09:04 43 °F 38 °F 30.55 in N 8 mph 14 mph 82% 0 in 69 W/m2
09:09 43 °F 38 °F 30.55 in NNE 6 mph 14 mph 82% 0 in 118 W/m2
09:14 43 °F 38 °F 30.56 in NNE 4 mph 9 mph 82% 0 in 109 W/m2
09:19 43 °F 38 °F 30.56 in NNE 3 mph 5 mph 82% 0 in 380 W/m2
09:24 44 °F 39 °F 30.56 in NNE 3 mph 8 mph 81% 0 in 396 W/m2
09:29 45 °F 39 °F 30.56 in NNE 3 mph 8 mph 79% 0 in 462 W/m2
09:34 46 °F 40 °F 30.56 in NNW 6 mph 10 mph 79% 0 in 480 W/m2
09:39 46 °F 40 °F 30.56 in N 8 mph 13 mph 78% 0 in 492 W/m2
09:44 46 °F 39 °F 30.56 in N 8 mph 12 mph 77% 0 in 461 W/m2
09:49 46 °F 39 °F 30.56 in NNW 7 mph 13 mph 76% 0 in 452 W/m2
09:54 47 °F 40 °F 30.56 in N 4 mph 10 mph 77% 0 in 462 W/m2
09:59 47 °F 40 °F 30.57 in N 5 mph 11 mph 75% 0 in 473 W/m2
10:04 48 °F 40 °F 30.56 in N 7 mph 11 mph 74% 0 in 483 W/m2
10:09 48 °F 40 °F 30.56 in N 5 mph 11 mph 74% 0 in 490 W/m2
10:14 48 °F 40 °F 30.56 in N 6 mph 10 mph 75% 0 in 503 W/m2
10:19 48 °F 40 °F 30.56 in NNW 6 mph 11 mph 74% 0 in 519 W/m2
10:24 48 °F 40 °F 30.56 in N 4 mph 11 mph 74% 0 in 552 W/m2
10:29 48 °F 40 °F 30.57 in NNW 6 mph 10 mph 73% 0 in 552 W/m2
10:34 48 °F 40 °F 30.57 in N 7 mph 11 mph 73% 0 in 540 W/m2
10:39 48 °F 40 °F 30.56 in NNW 4 mph 9 mph 72% 0 in 548 W/m2
10:44 49 °F 40 °F 30.56 in N 8 mph 13 mph 71% 0 in 559 W/m2
10:49 49 °F 40 °F 30.56 in N 5 mph 11 mph 70% 0 in 564 W/m2
10:54 49 °F 40 °F 30.56 in NNE 4 mph 9 mph 70% 0 in 575 W/m2
10:59 50 °F 40 °F 30.55 in N 5 mph 10 mph 70% 0 in 582 W/m2
11:04 50 °F 41 °F 30.55 in N 4 mph 8 mph 70% 0 in 589 W/m2
11:09 50 °F 40 °F 30.55 in NNE 2 mph 8 mph 68% 0 in 594 W/m2
11:14 51 °F 41 °F 30.55 in N 6 mph 11 mph 68% 0 in 603 W/m2
11:19 51 °F 40 °F 30.55 in NNE 3 mph 11 mph 66% 0 in 608 W/m2
11:24 51 °F 41 °F 30.55 in N 7 mph 12 mph 66% 0 in 612 W/m2
11:29 51 °F 40 °F 30.54 in NNE 4 mph 11 mph 65% 0 in 617 W/m2
11:34 51 °F 40 °F 30.54 in NNE 6 mph 12 mph 64% 0 in 622 W/m2
11:39 52 °F 39 °F 30.54 in NNE 5 mph 13 mph 63% 0 in 624 W/m2
11:44 52 °F 40 °F 30.54 in NNE 6 mph 10 mph 63% 0 in 629 W/m2
11:49 52 °F 40 °F 30.54 in NNE 6 mph 11 mph 62% 0 in 631 W/m2
11:54 53 °F 40 °F 30.53 in NNE 4 mph 10 mph 61% 0 in 633 W/m2
11:59 53 °F 40 °F 30.53 in N 5 mph 11 mph 60% 0 in 635 W/m2
12:04 54 °F 41 °F 30.52 in NNE 5 mph 11 mph 61% 0 in 638 W/m2
12:09 54 °F 40 °F 30.52 in N 5 mph 12 mph 60% 0 in 638 W/m2
12:14 54 °F 40 °F 30.52 in NNE 5 mph 11 mph 59% 0 in 638 W/m2
12:19 54 °F 41 °F 30.51 in NNE 4 mph 12 mph 59% 0 in 640 W/m2
12:24 54 °F 40 °F 30.51 in N 6 mph 12 mph 58% 0 in 640 W/m2
12:29 54 °F 40 °F 30.51 in NNE 3 mph 12 mph 58% 0 in 638 W/m2
12:34 55 °F 41 °F 30.51 in NNE 6 mph 13 mph 59% 0 in 636 W/m2
12:39 55 °F 40 °F 30.5 in NNE 7 mph 12 mph 57% 0 in 636 W/m2
12:44 55 °F 40 °F 30.5 in NNE 5 mph 12 mph 57% 0 in 631 W/m2
12:49 55 °F 40 °F 30.5 in NE 4 mph 9 mph 55% 0 in 629 W/m2
12:54 56 °F 40 °F 30.5 in NNE 5 mph 12 mph 55% 0 in 628 W/m2
12:59 56 °F 40 °F 30.49 in NNE 7 mph 12 mph 54% 0 in 624 W/m2
13:04 56 °F 40 °F 30.49 in NNE 6 mph 12 mph 54% 0 in 621 W/m2
13:09 56 °F 40 °F 30.49 in NNE 5 mph 11 mph 54% 0 in 615 W/m2
Villages of Bridgestone, Spring, TX USA
Compliments of Weather Underground - 2 mb